sensor_id;sensor_type;location;lat;lon;timestamp;P1;durP1;ratioP1;P2;durP2;ratioP2
3943;SDS011;1986;52.546;13.428;2024-03-17T00:01:04;16.00;;;15.50;;
3943;SDS011;1986;52.546;13.428;2024-03-17T00:03:30;16.20;;;15.70;;
3943;SDS011;1986;52.546;13.428;2024-03-17T00:05:58;15.93;;;15.43;;
3943;SDS011;1986;52.546;13.428;2024-03-17T00:08:26;15.73;;;15.27;;
3943;SDS011;1986;52.546;13.428;2024-03-17T00:10:55;15.90;;;15.40;;
3943;SDS011;1986;52.546;13.428;2024-03-17T00:13:21;15.77;;;15.27;;
3943;SDS011;1986;52.546;13.428;2024-03-17T00:15:49;15.97;;;15.47;;
3943;SDS011;1986;52.546;13.428;2024-03-17T00:18:16;15.73;;;15.23;;
3943;SDS011;1986;52.546;13.428;2024-03-17T00:20:43;15.90;;;15.40;;
3943;SDS011;1986;52.546;13.428;2024-03-17T00:23:09;15.80;;;15.30;;
3943;SDS011;1986;52.546;13.428;2024-03-17T00:25:49;15.77;;;15.27;;
3943;SDS011;1986;52.546;13.428;2024-03-17T00:28:16;16.00;;;15.50;;
3943;SDS011;1986;52.546;13.428;2024-03-17T00:30:43;15.17;;;14.77;;
3943;SDS011;1986;52.546;13.428;2024-03-17T00:33:09;15.60;;;15.13;;
3943;SDS011;1986;52.546;13.428;2024-03-17T00:35:36;15.90;;;15.40;;
3943;SDS011;1986;52.546;13.428;2024-03-17T00:38:02;15.77;;;15.27;;
3943;SDS011;1986;52.546;13.428;2024-03-17T00:40:35;15.30;;;14.90;;
3943;SDS011;1986;52.546;13.428;2024-03-17T00:43:02;15.40;;;15.00;;
3943;SDS011;1986;52.546;13.428;2024-03-17T00:45:32;15.53;;;15.10;;
3943;SDS011;1986;52.546;13.428;2024-03-17T00:47:58;15.33;;;14.93;;
3943;SDS011;1986;52.546;13.428;2024-03-17T00:50:26;15.10;;;14.70;;
3943;SDS011;1986;52.546;13.428;2024-03-17T00:52:52;15.20;;;14.80;;
3943;SDS011;1986;52.546;13.428;2024-03-17T00:55:19;15.60;;;15.10;;
3943;SDS011;1986;52.546;13.428;2024-03-17T00:57:44;15.20;;;14.80;;
3943;SDS011;1986;52.546;13.428;2024-03-17T01:00:13;14.70;;;14.30;;
3943;SDS011;1986;52.546;13.428;2024-03-17T01:02:40;15.07;;;14.67;;
3943;SDS011;1986;52.546;13.428;2024-03-17T01:05:07;15.27;;;14.87;;
3943;SDS011;1986;52.546;13.428;2024-03-17T01:07:34;14.97;;;14.57;;
3943;SDS011;1986;52.546;13.428;2024-03-17T01:10:04;15.30;;;14.90;;
3943;SDS011;1986;52.546;13.428;2024-03-17T01:12:33;14.90;;;14.50;;
3943;SDS011;1986;52.546;13.428;2024-03-17T01:15:02;15.10;;;14.70;;
3943;SDS011;1986;52.546;13.428;2024-03-17T01:17:31;15.40;;;15.00;;
3943;SDS011;1986;52.546;13.428;2024-03-17T01:19:58;14.80;;;14.40;;
3943;SDS011;1986;52.546;13.428;2024-03-17T01:22:24;15.07;;;14.67;;
3943;SDS011;1986;52.546;13.428;2024-03-17T01:24:51;15.23;;;14.83;;
3943;SDS011;1986;52.546;13.428;2024-03-17T01:27:17;15.23;;;14.83;;
3943;SDS011;1986;52.546;13.428;2024-03-17T01:29:46;14.97;;;14.57;;
3943;SDS011;1986;52.546;13.428;2024-03-17T01:32:13;14.90;;;14.50;;
3943;SDS011;1986;52.546;13.428;2024-03-17T01:34:42;14.97;;;14.57;;
3943;SDS011;1986;52.546;13.428;2024-03-17T01:37:08;14.73;;;14.33;;
3943;SDS011;1986;52.546;13.428;2024-03-17T01:39:35;14.63;;;14.23;;
3943;SDS011;1986;52.546;13.428;2024-03-17T01:42:01;14.50;;;14.10;;
3943;SDS011;1986;52.546;13.428;2024-03-17T01:44:28;14.70;;;14.30;;
3943;SDS011;1986;52.546;13.428;2024-03-17T01:46:55;14.70;;;14.30;;
3943;SDS011;1986;52.546;13.428;2024-03-17T01:49:23;14.77;;;14.37;;
3943;SDS011;1986;52.546;13.428;2024-03-17T01:51:53;13.90;;;13.60;;
3943;SDS011;1986;52.546;13.428;2024-03-17T01:54:21;14.50;;;14.10;;
3943;SDS011;1986;52.546;13.428;2024-03-17T01:56:48;13.77;;;13.47;;
3943;SDS011;1986;52.546;13.428;2024-03-17T01:59:15;13.93;;;13.63;;
3943;SDS011;1986;52.546;13.428;2024-03-17T02:01:43;14.00;;;13.70;;
3943;SDS011;1986;52.546;13.428;2024-03-17T02:04:10;13.60;;;13.30;;
3943;SDS011;1986;52.546;13.428;2024-03-17T02:06:36;13.60;;;13.30;;
3943;SDS011;1986;52.546;13.428;2024-03-17T02:09:05;14.03;;;13.73;;
3943;SDS011;1986;52.546;13.428;2024-03-17T02:11:32;13.77;;;13.47;;
3943;SDS011;1986;52.546;13.428;2024-03-17T02:14:00;13.47;;;13.17;;
3943;SDS011;1986;52.546;13.428;2024-03-17T02:16:26;13.90;;;13.60;;
3943;SDS011;1986;52.546;13.428;2024-03-17T02:18:56;13.80;;;13.50;;
3943;SDS011;1986;52.546;13.428;2024-03-17T02:21:22;13.90;;;13.60;;
3943;SDS011;1986;52.546;13.428;2024-03-17T02:23:51;13.60;;;13.30;;
3943;SDS011;1986;52.546;13.428;2024-03-17T02:26:17;13.90;;;13.60;;
3943;SDS011;1986;52.546;13.428;2024-03-17T02:28:45;13.70;;;13.40;;
3943;SDS011;1986;52.546;13.428;2024-03-17T02:31:12;13.50;;;13.20;;
3943;SDS011;1986;52.546;13.428;2024-03-17T02:33:41;13.80;;;13.50;;
3943;SDS011;1986;52.546;13.428;2024-03-17T02:36:07;13.70;;;13.40;;
3943;SDS011;1986;52.546;13.428;2024-03-17T02:38:35;13.67;;;13.37;;
3943;SDS011;1986;52.546;13.428;2024-03-17T02:41:21;13.27;;;12.97;;
3943;SDS011;1986;52.546;13.428;2024-03-17T02:43:49;13.20;;;12.90;;
3943;SDS011;1986;52.546;13.428;2024-03-17T02:46:16;13.30;;;13.00;;
3943;SDS011;1986;52.546;13.428;2024-03-17T02:48:44;13.57;;;13.27;;
3943;SDS011;1986;52.546;13.428;2024-03-17T02:51:13;12.90;;;12.70;;
3943;SDS011;1986;52.546;13.428;2024-03-17T02:53:41;13.30;;;13.00;;
3943;SDS011;1986;52.546;13.428;2024-03-17T02:56:10;12.90;;;12.70;;
3943;SDS011;1986;52.546;13.428;2024-03-17T02:58:39;12.60;;;12.40;;
3943;SDS011;1986;52.546;13.428;2024-03-17T03:01:06;12.37;;;12.17;;
3943;SDS011;1986;52.546;13.428;2024-03-17T03:03:34;12.33;;;12.13;;
3943;SDS011;1986;52.546;13.428;2024-03-17T03:06:02;12.00;;;11.80;;
3943;SDS011;1986;52.546;13.428;2024-03-17T03:08:34;12.20;;;12.00;;
3943;SDS011;1986;52.546;13.428;2024-03-17T03:11:03;11.93;;;11.73;;
3943;SDS011;1986;52.546;13.428;2024-03-17T03:13:32;11.73;;;11.63;;
3943;SDS011;1986;52.546;13.428;2024-03-17T03:16:00;11.60;;;11.50;;
3943;SDS011;1986;52.546;13.428;2024-03-17T03:18:27;11.67;;;11.57;;
3943;SDS011;1986;52.546;13.428;2024-03-17T03:20:54;11.60;;;11.50;;
3943;SDS011;1986;52.546;13.428;2024-03-17T03:23:21;11.60;;;11.50;;
3943;SDS011;1986;52.546;13.428;2024-03-17T03:25:54;11.80;;;11.60;;
3943;SDS011;1986;52.546;13.428;2024-03-17T03:28:21;10.90;;;10.80;;
3943;SDS011;1986;52.546;13.428;2024-03-17T03:30:49;11.33;;;11.23;;
3943;SDS011;1986;52.546;13.428;2024-03-17T03:33:17;11.10;;;11.00;;
3943;SDS011;1986;52.546;13.428;2024-03-17T03:35:44;11.50;;;11.40;;
3943;SDS011;1986;52.546;13.428;2024-03-17T03:38:11;11.17;;;11.07;;
3943;SDS011;1986;52.546;13.428;2024-03-17T03:40:39;11.40;;;11.30;;
3943;SDS011;1986;52.546;13.428;2024-03-17T03:43:07;11.30;;;11.20;;
3943;SDS011;1986;52.546;13.428;2024-03-17T03:45:34;11.00;;;10.90;;
3943;SDS011;1986;52.546;13.428;2024-03-17T03:48:01;10.63;;;10.53;;
3943;SDS011;1986;52.546;13.428;2024-03-17T03:50:30;10.50;;;10.40;;
3943;SDS011;1986;52.546;13.428;2024-03-17T03:52:58;10.50;;;10.40;;
3943;SDS011;1986;52.546;13.428;2024-03-17T03:55:25;10.73;;;10.63;;
3943;SDS011;1986;52.546;13.428;2024-03-17T03:57:52;10.50;;;10.40;;
3943;SDS011;1986;52.546;13.428;2024-03-17T04:00:19;10.60;;;10.50;;
3943;SDS011;1986;52.546;13.428;2024-03-17T04:02:47;10.47;;;10.37;;
3943;SDS011;1986;52.546;13.428;2024-03-17T04:05:15;10.10;;;10.00;;
3943;SDS011;1986;52.546;13.428;2024-03-17T04:07:45;10.10;;;10.00;;
3943;SDS011;1986;52.546;13.428;2024-03-17T04:10:13;10.43;;;10.33;;
3943;SDS011;1986;52.546;13.428;2024-03-17T04:12:43;10.23;;;10.13;;
3943;SDS011;1986;52.546;13.428;2024-03-17T04:15:13;9.70;;;9.60;;
3943;SDS011;1986;52.546;13.428;2024-03-17T04:17:40;10.30;;;10.20;;
3943;SDS011;1986;52.546;13.428;2024-03-17T04:20:08;9.70;;;9.60;;
3943;SDS011;1986;52.546;13.428;2024-03-17T04:22:38;9.60;;;9.50;;
3943;SDS011;1986;52.546;13.428;2024-03-17T04:25:07;10.13;;;10.03;;
3943;SDS011;1986;52.546;13.428;2024-03-17T04:27:34;9.90;;;9.80;;
3943;SDS011;1986;52.546;13.428;2024-03-17T04:30:02;9.50;;;9.40;;
3943;SDS011;1986;52.546;13.428;2024-03-17T04:32:31;9.33;;;9.23;;
3943;SDS011;1986;52.546;13.428;2024-03-17T04:34:58;9.50;;;9.40;;
3943;SDS011;1986;52.546;13.428;2024-03-17T04:37:25;9.30;;;9.20;;
3943;SDS011;1986;52.546;13.428;2024-03-17T04:39:53;9.30;;;9.20;;
3943;SDS011;1986;52.546;13.428;2024-03-17T04:42:26;8.70;;;8.60;;
3943;SDS011;1986;52.546;13.428;2024-03-17T04:44:53;8.63;;;8.53;;
3943;SDS011;1986;52.546;13.428;2024-03-17T04:47:20;8.63;;;8.53;;
3943;SDS011;1986;52.546;13.428;2024-03-17T04:49:47;8.60;;;8.50;;
3943;SDS011;1986;52.546;13.428;2024-03-17T04:52:14;8.50;;;8.40;;
3943;SDS011;1986;52.546;13.428;2024-03-17T04:54:41;7.70;;;7.70;;
3943;SDS011;1986;52.546;13.428;2024-03-17T04:57:08;7.93;;;7.93;;
3943;SDS011;1986;52.546;13.428;2024-03-17T04:59:36;8.27;;;8.23;;
3943;SDS011;1986;52.546;13.428;2024-03-17T05:02:04;8.10;;;8.10;;
3943;SDS011;1986;52.546;13.428;2024-03-17T05:04:31;7.87;;;7.87;;
3943;SDS011;1986;52.546;13.428;2024-03-17T05:06:58;7.40;;;7.40;;
3943;SDS011;1986;52.546;13.428;2024-03-17T05:09:25;7.60;;;7.60;;
3943;SDS011;1986;52.546;13.428;2024-03-17T05:11:54;7.70;;;7.70;;
3943;SDS011;1986;52.546;13.428;2024-03-17T05:14:21;8.73;;;8.63;;
3943;SDS011;1986;52.546;13.428;2024-03-17T05:16:50;8.33;;;8.23;;
3943;SDS011;1986;52.546;13.428;2024-03-17T05:19:17;7.70;;;7.70;;
3943;SDS011;1986;52.546;13.428;2024-03-17T05:21:44;8.27;;;8.17;;
3943;SDS011;1986;52.546;13.428;2024-03-17T05:24:11;8.50;;;8.40;;
3943;SDS011;1986;52.546;13.428;2024-03-17T05:26:39;8.60;;;8.50;;
3943;SDS011;1986;52.546;13.428;2024-03-17T05:29:08;8.23;;;8.13;;
3943;SDS011;1986;52.546;13.428;2024-03-17T05:31:35;7.97;;;7.97;;
3943;SDS011;1986;52.546;13.428;2024-03-17T05:34:05;8.50;;;8.40;;
3943;SDS011;1986;52.546;13.428;2024-03-17T05:36:34;8.13;;;8.03;;
3943;SDS011;1986;52.546;13.428;2024-03-17T05:39:01;7.93;;;7.93;;
3943;SDS011;1986;52.546;13.428;2024-03-17T05:41:28;7.77;;;7.77;;
3943;SDS011;1986;52.546;13.428;2024-03-17T05:43:55;8.20;;;8.10;;
3943;SDS011;1986;52.546;13.428;2024-03-17T05:46:23;7.90;;;7.90;;
3943;SDS011;1986;52.546;13.428;2024-03-17T05:48:51;8.20;;;8.10;;
3943;SDS011;1986;52.546;13.428;2024-03-17T05:51:20;8.53;;;8.43;;
3943;SDS011;1986;52.546;13.428;2024-03-17T05:53:51;8.93;;;8.83;;
3943;SDS011;1986;52.546;13.428;2024-03-17T05:56:18;10.20;;;10.10;;
3943;SDS011;1986;52.546;13.428;2024-03-17T05:58:47;10.10;;;10.00;;
3943;SDS011;1986;52.546;13.428;2024-03-17T06:01:14;10.80;;;10.70;;
3943;SDS011;1986;52.546;13.428;2024-03-17T06:03:41;10.80;;;10.70;;
3943;SDS011;1986;52.546;13.428;2024-03-17T06:06:08;10.63;;;10.53;;
3943;SDS011;1986;52.546;13.428;2024-03-17T06:08:37;10.60;;;10.50;;
3943;SDS011;1986;52.546;13.428;2024-03-17T06:11:05;11.30;;;11.20;;
3943;SDS011;1986;52.546;13.428;2024-03-17T06:13:33;11.47;;;11.37;;
3943;SDS011;1986;52.546;13.428;2024-03-17T06:16:01;11.80;;;11.70;;
3943;SDS011;1986;52.546;13.428;2024-03-17T06:18:30;11.70;;;11.60;;
3943;SDS011;1986;52.546;13.428;2024-03-17T06:20:57;11.77;;;11.63;;
3943;SDS011;1986;52.546;13.428;2024-03-17T06:23:26;11.60;;;11.50;;
3943;SDS011;1986;52.546;13.428;2024-03-17T06:25:54;11.47;;;11.37;;
3943;SDS011;1986;52.546;13.428;2024-03-17T06:28:22;11.07;;;10.97;;
3943;SDS011;1986;52.546;13.428;2024-03-17T06:30:54;11.30;;;11.10;;
3943;SDS011;1986;52.546;13.428;2024-03-17T06:33:24;10.80;;;10.70;;
3943;SDS011;1986;52.546;13.428;2024-03-17T06:35:53;10.80;;;10.70;;
3943;SDS011;1986;52.546;13.428;2024-03-17T06:38:22;10.30;;;10.20;;
3943;SDS011;1986;52.546;13.428;2024-03-17T06:40:49;10.57;;;10.47;;
3943;SDS011;1986;52.546;13.428;2024-03-17T06:43:18;11.37;;;11.23;;
3943;SDS011;1986;52.546;13.428;2024-03-17T06:45:56;11.10;;;11.00;;
3943;SDS011;1986;52.546;13.428;2024-03-17T06:48:25;12.27;;;12.07;;
3943;SDS011;1986;52.546;13.428;2024-03-17T06:50:53;11.60;;;11.50;;
3943;SDS011;1986;52.546;13.428;2024-03-17T06:53:20;11.90;;;11.70;;
3943;SDS011;1986;52.546;13.428;2024-03-17T06:55:57;12.23;;;12.03;;
3943;SDS011;1986;52.546;13.428;2024-03-17T06:58:26;11.90;;;11.70;;
3943;SDS011;1986;52.546;13.428;2024-03-17T07:00:55;12.20;;;12.00;;
3943;SDS011;1986;52.546;13.428;2024-03-17T07:03:23;12.53;;;12.33;;
3943;SDS011;1986;52.546;13.428;2024-03-17T07:05:54;12.67;;;12.47;;
3943;SDS011;1986;52.546;13.428;2024-03-17T07:08:24;13.17;;;12.97;;
3943;SDS011;1986;52.546;13.428;2024-03-17T07:10:59;12.80;;;12.60;;
3943;SDS011;1986;52.546;13.428;2024-03-17T07:13:30;13.00;;;12.80;;
3943;SDS011;1986;52.546;13.428;2024-03-17T07:15:59;13.30;;;13.00;;
3943;SDS011;1986;52.546;13.428;2024-03-17T07:18:32;13.50;;;13.20;;
3943;SDS011;1986;52.546;13.428;2024-03-17T07:21:01;13.10;;;12.90;;
3943;SDS011;1986;52.546;13.428;2024-03-17T07:23:31;14.07;;;13.77;;
3943;SDS011;1986;52.546;13.428;2024-03-17T07:26:04;13.70;;;13.40;;
3943;SDS011;1986;52.546;13.428;2024-03-17T07:28:38;14.10;;;13.80;;
3943;SDS011;1986;52.546;13.428;2024-03-17T07:31:13;14.20;;;13.90;;
3943;SDS011;1986;52.546;13.428;2024-03-17T07:33:41;13.20;;;12.90;;
3943;SDS011;1986;52.546;13.428;2024-03-17T07:36:08;13.10;;;12.80;;
3943;SDS011;1986;52.546;13.428;2024-03-17T07:38:36;14.07;;;13.77;;
3943;SDS011;1986;52.546;13.428;2024-03-17T07:41:07;13.50;;;13.20;;
3943;SDS011;1986;52.546;13.428;2024-03-17T07:43:43;13.90;;;13.60;;
3943;SDS011;1986;52.546;13.428;2024-03-17T07:46:14;13.60;;;13.30;;
3943;SDS011;1986;52.546;13.428;2024-03-17T07:48:41;14.00;;;13.70;;
3943;SDS011;1986;52.546;13.428;2024-03-17T07:51:10;13.60;;;13.30;;
3943;SDS011;1986;52.546;13.428;2024-03-17T07:53:40;14.00;;;13.70;;
3943;SDS011;1986;52.546;13.428;2024-03-17T07:56:11;14.30;;;14.00;;
3943;SDS011;1986;52.546;13.428;2024-03-17T07:58:39;14.20;;;13.90;;
3943;SDS011;1986;52.546;13.428;2024-03-17T08:01:15;14.03;;;13.73;;
3943;SDS011;1986;52.546;13.428;2024-03-17T08:03:44;14.50;;;14.10;;
3943;SDS011;1986;52.546;13.428;2024-03-17T08:06:12;14.50;;;14.10;;
3943;SDS011;1986;52.546;13.428;2024-03-17T08:08:39;14.77;;;14.37;;
3943;SDS011;1986;52.546;13.428;2024-03-17T08:11:06;14.57;;;14.17;;
3943;SDS011;1986;52.546;13.428;2024-03-17T08:13:33;15.30;;;14.90;;
3943;SDS011;1986;52.546;13.428;2024-03-17T08:16:02;14.70;;;14.30;;
3943;SDS011;1986;52.546;13.428;2024-03-17T08:18:31;14.50;;;14.10;;
3943;SDS011;1986;52.546;13.428;2024-03-17T08:20:59;14.70;;;14.30;;
3943;SDS011;1986;52.546;13.428;2024-03-17T08:23:27;15.30;;;14.80;;
3943;SDS011;1986;52.546;13.428;2024-03-17T08:25:54;14.83;;;14.43;;
3943;SDS011;1986;52.546;13.428;2024-03-17T08:28:22;15.20;;;14.70;;
3943;SDS011;1986;52.546;13.428;2024-03-17T08:30:52;15.50;;;15.00;;
3943;SDS011;1986;52.546;13.428;2024-03-17T08:33:21;15.80;;;15.30;;
3943;SDS011;1986;52.546;13.428;2024-03-17T08:35:55;16.00;;;15.50;;
3943;SDS011;1986;52.546;13.428;2024-03-17T08:38:22;16.30;;;15.70;;
3943;SDS011;1986;52.546;13.428;2024-03-17T08:40:50;16.40;;;15.80;;
3943;SDS011;1986;52.546;13.428;2024-03-17T08:43:17;16.30;;;15.70;;
3943;SDS011;1986;52.546;13.428;2024-03-17T08:45:45;16.40;;;15.80;;
3943;SDS011;1986;52.546;13.428;2024-03-17T08:48:25;16.63;;;16.03;;
3943;SDS011;1986;52.546;13.428;2024-03-17T08:50:52;16.60;;;16.00;;
3943;SDS011;1986;52.546;13.428;2024-03-17T08:53:19;16.50;;;15.90;;
3943;SDS011;1986;52.546;13.428;2024-03-17T08:55:47;17.00;;;16.30;;
3943;SDS011;1986;52.546;13.428;2024-03-17T08:58:14;17.60;;;16.90;;
3943;SDS011;1986;52.546;13.428;2024-03-17T09:00:44;17.20;;;16.50;;
3943;SDS011;1986;52.546;13.428;2024-03-17T09:03:11;17.47;;;16.77;;
3943;SDS011;1986;52.546;13.428;2024-03-17T09:05:41;17.30;;;16.60;;
3943;SDS011;1986;52.546;13.428;2024-03-17T09:08:10;17.80;;;17.10;;
3943;SDS011;1986;52.546;13.428;2024-03-17T09:10:43;17.20;;;16.50;;
3943;SDS011;1986;52.546;13.428;2024-03-17T09:13:11;17.50;;;16.80;;
3943;SDS011;1986;52.546;13.428;2024-03-17T09:15:40;17.60;;;16.90;;
3943;SDS011;1986;52.546;13.428;2024-03-17T09:18:15;17.27;;;16.57;;
3943;SDS011;1986;52.546;13.428;2024-03-17T09:20:43;17.80;;;17.10;;
3943;SDS011;1986;52.546;13.428;2024-03-17T09:23:11;18.10;;;17.40;;
3943;SDS011;1986;52.546;13.428;2024-03-17T09:25:38;17.40;;;16.70;;
3943;SDS011;1986;52.546;13.428;2024-03-17T09:28:05;17.40;;;16.70;;
3943;SDS011;1986;52.546;13.428;2024-03-17T09:30:32;17.60;;;16.90;;
3943;SDS011;1986;52.546;13.428;2024-03-17T09:32:59;17.80;;;17.10;;
3943;SDS011;1986;52.546;13.428;2024-03-17T09:35:29;18.70;;;17.90;;
3943;SDS011;1986;52.546;13.428;2024-03-17T09:37:57;18.23;;;17.50;;
3943;SDS011;1986;52.546;13.428;2024-03-17T09:40:24;18.53;;;17.73;;
3943;SDS011;1986;52.546;13.428;2024-03-17T09:42:51;18.40;;;17.60;;
3943;SDS011;1986;52.546;13.428;2024-03-17T09:45:18;18.60;;;17.80;;
3943;SDS011;1986;52.546;13.428;2024-03-17T09:47:47;18.50;;;17.70;;
3943;SDS011;1986;52.546;13.428;2024-03-17T09:50:13;18.80;;;18.00;;
3943;SDS011;1986;52.546;13.428;2024-03-17T09:52:42;18.80;;;18.00;;
3943;SDS011;1986;52.546;13.428;2024-03-17T09:55:15;19.03;;;18.13;;
3943;SDS011;1986;52.546;13.428;2024-03-17T09:57:43;18.70;;;17.90;;
3943;SDS011;1986;52.546;13.428;2024-03-17T10:00:13;18.17;;;17.37;;
3943;SDS011;1986;52.546;13.428;2024-03-17T10:02:42;19.63;;;18.83;;
3943;SDS011;1986;52.546;13.428;2024-03-17T10:05:19;18.83;;;18.13;;
3943;SDS011;1986;52.546;13.428;2024-03-17T10:07:47;18.60;;;17.80;;
3943;SDS011;1986;52.546;13.428;2024-03-17T10:10:16;18.60;;;17.80;;
3943;SDS011;1986;52.546;13.428;2024-03-17T10:12:44;18.70;;;17.90;;
3943;SDS011;1986;52.546;13.428;2024-03-17T10:15:15;18.60;;;17.80;;
3943;SDS011;1986;52.546;13.428;2024-03-17T10:17:43;19.07;;;18.27;;
3943;SDS011;1986;52.546;13.428;2024-03-17T10:20:13;18.80;;;18.00;;
3943;SDS011;1986;52.546;13.428;2024-03-17T10:23:00;19.20;;;18.40;;
3943;SDS011;1986;52.546;13.428;2024-03-17T10:25:30;18.53;;;17.73;;
3943;SDS011;1986;52.546;13.428;2024-03-17T10:28:00;18.90;;;18.10;;
3943;SDS011;1986;52.546;13.428;2024-03-17T10:30:30;19.30;;;18.40;;
3943;SDS011;1986;52.546;13.428;2024-03-17T10:32:57;19.50;;;18.60;;
3943;SDS011;1986;52.546;13.428;2024-03-17T10:35:29;19.13;;;18.33;;
3943;SDS011;1986;52.546;13.428;2024-03-17T10:37:58;19.10;;;18.30;;
3943;SDS011;1986;52.546;13.428;2024-03-17T10:40:26;19.10;;;18.20;;
3943;SDS011;1986;52.546;13.428;2024-03-17T10:42:57;19.50;;;18.60;;
3943;SDS011;1986;52.546;13.428;2024-03-17T10:45:27;20.10;;;19.20;;
3943;SDS011;1986;52.546;13.428;2024-03-17T10:48:01;19.40;;;18.50;;
3943;SDS011;1986;52.546;13.428;2024-03-17T10:50:29;19.60;;;18.70;;
3943;SDS011;1986;52.546;13.428;2024-03-17T10:53:01;19.40;;;18.50;;
3943;SDS011;1986;52.546;13.428;2024-03-17T10:55:32;19.60;;;18.70;;
3943;SDS011;1986;52.546;13.428;2024-03-17T10:58:13;19.50;;;18.60;;
3943;SDS011;1986;52.546;13.428;2024-03-17T11:00:50;19.80;;;18.90;;
3943;SDS011;1986;52.546;13.428;2024-03-17T11:03:18;19.80;;;18.90;;
3943;SDS011;1986;52.546;13.428;2024-03-17T11:05:46;19.80;;;18.80;;
3943;SDS011;1986;52.546;13.428;2024-03-17T11:08:15;19.70;;;18.70;;
3943;SDS011;1986;52.546;13.428;2024-03-17T11:10:48;19.50;;;18.50;;
3943;SDS011;1986;52.546;13.428;2024-03-17T11:13:28;19.40;;;18.40;;
3943;SDS011;1986;52.546;13.428;2024-03-17T11:15:56;19.80;;;18.80;;
3943;SDS011;1986;52.546;13.428;2024-03-17T11:21:17;20.27;;;19.27;;
3943;SDS011;1986;52.546;13.428;2024-03-17T11:23:56;20.40;;;19.30;;
3943;SDS011;1986;52.546;13.428;2024-03-17T11:26:29;19.90;;;18.90;;
3943;SDS011;1986;52.546;13.428;2024-03-17T11:28:59;19.80;;;18.80;;
3943;SDS011;1986;52.546;13.428;2024-03-17T11:31:31;20.00;;;18.90;;
3943;SDS011;1986;52.546;13.428;2024-03-17T11:34:03;20.23;;;19.23;;
3943;SDS011;1986;52.546;13.428;2024-03-17T11:36:33;20.07;;;19.07;;
3943;SDS011;1986;52.546;13.428;2024-03-17T11:39:04;20.90;;;19.90;;
3943;SDS011;1986;52.546;13.428;2024-03-17T11:41:36;21.30;;;20.20;;
3943;SDS011;1986;52.546;13.428;2024-03-17T11:44:14;21.40;;;20.30;;
3943;SDS011;1986;52.546;13.428;2024-03-17T11:46:52;20.93;;;19.83;;
3943;SDS011;1986;52.546;13.428;2024-03-17T11:49:20;21.00;;;19.90;;
3943;SDS011;1986;52.546;13.428;2024-03-17T11:51:48;20.80;;;19.70;;
3943;SDS011;1986;52.546;13.428;2024-03-17T11:54:15;20.80;;;19.80;;
3943;SDS011;1986;52.546;13.428;2024-03-17T11:56:48;21.00;;;19.97;;
3943;SDS011;1986;52.546;13.428;2024-03-17T11:59:16;20.87;;;19.87;;
3943;SDS011;1986;52.546;13.428;2024-03-17T12:01:44;20.40;;;19.40;;
3943;SDS011;1986;52.546;13.428;2024-03-17T12:04:12;21.00;;;20.00;;
3943;SDS011;1986;52.546;13.428;2024-03-17T12:06:45;21.60;;;20.60;;
3943;SDS011;1986;52.546;13.428;2024-03-17T12:09:16;21.47;;;20.47;;
3943;SDS011;1986;52.546;13.428;2024-03-17T12:11:47;21.10;;;20.10;;
3943;SDS011;1986;52.546;13.428;2024-03-17T12:14:16;21.30;;;20.30;;
3943;SDS011;1986;52.546;13.428;2024-03-17T12:16:51;21.60;;;20.50;;
3943;SDS011;1986;52.546;13.428;2024-03-17T12:19:18;21.40;;;20.40;;
3943;SDS011;1986;52.546;13.428;2024-03-17T12:21:47;21.77;;;20.77;;
3943;SDS011;1986;52.546;13.428;2024-03-17T12:24:17;21.83;;;20.83;;
3943;SDS011;1986;52.546;13.428;2024-03-17T12:26:46;21.70;;;20.70;;
3943;SDS011;1986;52.546;13.428;2024-03-17T12:29:24;21.40;;;20.40;;
3943;SDS011;1986;52.546;13.428;2024-03-17T12:31:55;22.57;;;21.47;;
3943;SDS011;1986;52.546;13.428;2024-03-17T12:34:26;22.83;;;21.73;;
3943;SDS011;1986;52.546;13.428;2024-03-17T12:36:57;22.30;;;21.20;;
3943;SDS011;1986;52.546;13.428;2024-03-17T12:39:24;21.90;;;20.90;;
3943;SDS011;1986;52.546;13.428;2024-03-17T12:42:11;21.80;;;20.80;;
3943;SDS011;1986;52.546;13.428;2024-03-17T12:44:47;22.40;;;21.30;;
3943;SDS011;1986;52.546;13.428;2024-03-17T12:47:23;22.10;;;21.00;;
3943;SDS011;1986;52.546;13.428;2024-03-17T12:49:52;22.20;;;21.10;;
3943;SDS011;1986;52.546;13.428;2024-03-17T12:52:19;22.43;;;21.33;;
3943;SDS011;1986;52.546;13.428;2024-03-17T12:54:56;22.20;;;21.10;;
3943;SDS011;1986;52.546;13.428;2024-03-17T12:57:42;21.80;;;20.70;;
3943;SDS011;1986;52.546;13.428;2024-03-17T13:00:36;21.80;;;20.70;;
3943;SDS011;1986;52.546;13.428;2024-03-17T13:03:04;22.17;;;20.97;;
3943;SDS011;1986;52.546;13.428;2024-03-17T13:05:32;22.00;;;20.90;;
3943;SDS011;1986;52.546;13.428;2024-03-17T13:08:02;21.50;;;20.40;;
3943;SDS011;1986;52.546;13.428;2024-03-17T13:10:29;22.10;;;21.00;;
3943;SDS011;1986;52.546;13.428;2024-03-17T13:13:00;21.70;;;20.70;;
3943;SDS011;1986;52.546;13.428;2024-03-17T13:15:28;22.30;;;21.30;;
3943;SDS011;1986;52.546;13.428;2024-03-17T13:17:58;21.77;;;20.77;;
3943;SDS011;1986;52.546;13.428;2024-03-17T13:20:27;21.50;;;20.40;;
3943;SDS011;1986;52.546;13.428;2024-03-17T13:22:54;21.73;;;20.63;;
3943;SDS011;1986;52.546;13.428;2024-03-17T13:25:23;21.80;;;20.70;;
3943;SDS011;1986;52.546;13.428;2024-03-17T13:27:53;22.10;;;20.90;;
3943;SDS011;1986;52.546;13.428;2024-03-17T13:30:20;21.80;;;20.70;;
3943;SDS011;1986;52.546;13.428;2024-03-17T13:32:53;22.20;;;21.10;;
3943;SDS011;1986;52.546;13.428;2024-03-17T13:35:25;22.70;;;21.50;;
3943;SDS011;1986;52.546;13.428;2024-03-17T13:37:54;22.50;;;21.30;;
3943;SDS011;1986;52.546;13.428;2024-03-17T13:40:23;22.20;;;21.10;;
3943;SDS011;1986;52.546;13.428;2024-03-17T13:42:51;22.70;;;21.50;;
3943;SDS011;1986;52.546;13.428;2024-03-17T13:45:19;22.50;;;21.30;;
3943;SDS011;1986;52.546;13.428;2024-03-17T13:47:48;22.50;;;21.30;;
3943;SDS011;1986;52.546;13.428;2024-03-17T13:50:17;22.30;;;21.00;;
3943;SDS011;1986;52.546;13.428;2024-03-17T13:52:45;22.20;;;21.00;;
3943;SDS011;1986;52.546;13.428;2024-03-17T13:55:16;22.10;;;20.90;;
3943;SDS011;1986;52.546;13.428;2024-03-17T13:57:45;22.50;;;21.30;;
3943;SDS011;1986;52.546;13.428;2024-03-17T14:00:16;22.70;;;21.50;;
3943;SDS011;1986;52.546;13.428;2024-03-17T14:02:44;23.30;;;22.10;;
3943;SDS011;1986;52.546;13.428;2024-03-17T14:05:12;23.10;;;21.90;;
3943;SDS011;1986;52.546;13.428;2024-03-17T14:07:40;23.37;;;22.17;;
3943;SDS011;1986;52.546;13.428;2024-03-17T14:10:09;23.90;;;22.60;;
3943;SDS011;1986;52.546;13.428;2024-03-17T14:12:37;23.17;;;21.97;;
3943;SDS011;1986;52.546;13.428;2024-03-17T14:15:05;22.83;;;21.53;;
3943;SDS011;1986;52.546;13.428;2024-03-17T14:17:35;23.03;;;21.93;;
3943;SDS011;1986;52.546;13.428;2024-03-17T14:20:03;22.50;;;21.40;;
3943;SDS011;1986;52.546;13.428;2024-03-17T14:22:31;22.20;;;21.00;;
3943;SDS011;1986;52.546;13.428;2024-03-17T14:24:58;22.10;;;20.90;;
3943;SDS011;1986;52.546;13.428;2024-03-17T14:27:26;22.33;;;21.23;;
3943;SDS011;1986;52.546;13.428;2024-03-17T14:29:53;22.30;;;21.20;;
3943;SDS011;1986;52.546;13.428;2024-03-17T14:32:20;22.40;;;21.20;;
3943;SDS011;1986;52.546;13.428;2024-03-17T14:34:47;22.60;;;21.40;;
3943;SDS011;1986;52.546;13.428;2024-03-17T14:37:14;22.60;;;21.40;;
3943;SDS011;1986;52.546;13.428;2024-03-17T14:39:41;22.07;;;20.87;;
3943;SDS011;1986;52.546;13.428;2024-03-17T14:42:09;21.90;;;20.80;;
3943;SDS011;1986;52.546;13.428;2024-03-17T14:44:40;21.60;;;20.50;;
3943;SDS011;1986;52.546;13.428;2024-03-17T14:47:08;22.43;;;21.23;;
3943;SDS011;1986;52.546;13.428;2024-03-17T14:49:36;22.30;;;21.10;;
3943;SDS011;1986;52.546;13.428;2024-03-17T14:52:03;22.23;;;21.03;;